sensor_id;sensor_type;location;lat;lon;timestamp;pressure;altitude;pressure_sealevel;temperature;humidity
21433;BME280;18592;49.708;10.900;2023-08-12T00:00:25;98945.53;;;25.32;44.16
21433;BME280;18592;49.708;10.900;2023-08-12T00:02:27;98942.28;;;25.30;44.18
21433;BME280;18592;49.708;10.900;2023-08-12T00:04:31;98950.13;;;25.27;44.30
21433;BME280;18592;49.708;10.900;2023-08-12T00:06:33;98950.50;;;25.26;44.52
21433;BME280;18592;49.708;10.900;2023-08-12T00:08:37;98951.16;;;25.23;44.56
21433;BME280;18592;49.708;10.900;2023-08-12T00:10:39;98952.34;;;25.22;44.21
21433;BME280;18592;49.708;10.900;2023-08-12T00:12:43;98954.16;;;25.18;44.71
21433;BME280;18592;49.708;10.900;2023-08-12T00:14:44;98941.69;;;25.15;44.71
21433;BME280;18592;49.708;10.900;2023-08-12T00:16:46;98950.41;;;25.14;44.55
21433;BME280;18592;49.708;10.900;2023-08-12T00:18:51;98947.47;;;25.10;44.60
21433;BME280;18592;49.708;10.900;2023-08-12T00:20:53;98953.38;;;25.09;44.68
21433;BME280;18592;49.708;10.900;2023-08-12T00:22:55;98945.34;;;25.07;44.72
21433;BME280;18592;49.708;10.900;2023-08-12T00:24:56;98952.41;;;25.05;44.30
21433;BME280;18592;49.708;10.900;2023-08-12T00:26:58;98950.31;;;25.02;44.26
21433;BME280;18592;49.708;10.900;2023-08-12T00:29:00;98948.19;;;24.99;44.62
21433;BME280;18592;49.708;10.900;2023-08-12T00:31:02;98945.72;;;24.97;44.72
21433;BME280;18592;49.708;10.900;2023-08-12T00:33:04;98941.63;;;24.95;44.92
21433;BME280;18592;49.708;10.900;2023-08-12T00:35:06;98935.56;;;24.93;45.03
21433;BME280;18592;49.708;10.900;2023-08-12T00:37:12;98937.06;;;24.90;44.65
21433;BME280;18592;49.708;10.900;2023-08-12T00:39:14;98935.75;;;24.88;44.90
21433;BME280;18592;49.708;10.900;2023-08-12T00:41:19;98930.84;;;24.85;45.15
21433;BME280;18592;49.708;10.900;2023-08-12T00:43:21;98933.16;;;24.83;44.90
21433;BME280;18592;49.708;10.900;2023-08-12T00:45:22;98931.03;;;24.80;44.99
21433;BME280;18592;49.708;10.900;2023-08-12T00:47:24;98931.38;;;24.78;44.99
21433;BME280;18592;49.708;10.900;2023-08-12T00:49:27;98930.06;;;24.76;45.23
21433;BME280;18592;49.708;10.900;2023-08-12T00:51:29;98932.38;;;24.74;45.29
21433;BME280;18592;49.708;10.900;2023-08-12T00:53:33;98931.06;;;24.71;45.42
21433;BME280;18592;49.708;10.900;2023-08-12T00:55:38;98932.56;;;24.69;45.30
21433;BME280;18592;49.708;10.900;2023-08-12T00:57:40;98932.38;;;24.65;45.35
21433;BME280;18592;49.708;10.900;2023-08-12T00:59:43;98931.09;;;24.62;45.46
21433;BME280;18592;49.708;10.900;2023-08-12T01:01:46;98925.84;;;24.61;45.48
21433;BME280;18592;49.708;10.900;2023-08-12T01:03:51;98928.47;;;24.57;45.33
21433;BME280;18592;49.708;10.900;2023-08-12T01:05:53;98921.59;;;24.55;45.55
21433;BME280;18592;49.708;10.900;2023-08-12T01:07:59;98927.53;;;24.53;45.55
21433;BME280;18592;49.708;10.900;2023-08-12T01:10:01;98925.41;;;24.50;45.67
21433;BME280;18592;49.708;10.900;2023-08-12T01:14:15;98915.56;;;24.44;45.67
21433;BME280;18592;49.708;10.900;2023-08-12T01:16:20;98915.91;;;24.43;45.35
21433;BME280;18592;49.708;10.900;2023-08-12T01:18:24;98917.41;;;24.40;45.46
21433;BME280;18592;49.708;10.900;2023-08-12T01:20:27;98909.69;;;24.37;45.42
21433;BME280;18592;49.708;10.900;2023-08-12T01:22:37;98920.38;;;24.35;46.11
21433;BME280;18592;49.708;10.900;2023-08-12T01:24:44;98917.09;;;24.33;45.79
21433;BME280;18592;49.708;10.900;2023-08-12T01:26:52;98913.81;;;24.31;45.95
21433;BME280;18592;49.708;10.900;2023-08-12T01:28:54;98908.91;;;24.28;45.83
21433;BME280;18592;49.708;10.900;2023-08-12T01:31:04;98908.41;;;24.26;45.86
21433;BME280;18592;49.708;10.900;2023-08-12T01:35:19;98906.97;;;24.20;45.87
21433;BME280;18592;49.708;10.900;2023-08-12T01:37:24;98898.91;;;24.19;45.84
21433;BME280;18592;49.708;10.900;2023-08-12T01:39:29;98897.31;;;24.18;45.86
21433;BME280;18592;49.708;10.900;2023-08-12T01:41:32;98891.56;;;24.14;46.01
21433;BME280;18592;49.708;10.900;2023-08-12T01:43:35;98889.94;;;24.13;45.68
21433;BME280;18592;49.708;10.900;2023-08-12T01:45:37;98881.06;;;24.11;45.97
21433;BME280;18592;49.708;10.900;2023-08-12T01:47:38;98877.81;;;24.09;45.93
21433;BME280;18592;49.708;10.900;2023-08-12T01:49:44;98877.31;;;24.07;45.79
21433;BME280;18592;49.708;10.900;2023-08-12T01:51:45;98873.69;;;24.07;45.69
21433;BME280;18592;49.708;10.900;2023-08-12T01:53:47;98868.78;;;24.03;46.03
21433;BME280;18592;49.708;10.900;2023-08-12T01:55:49;98877.47;;;24.02;46.13
21433;BME280;18592;49.708;10.900;2023-08-12T01:57:51;98877.81;;;24.00;46.08
21433;BME280;18592;49.708;10.900;2023-08-12T01:59:53;98875.34;;;23.99;45.77
21433;BME280;18592;49.708;10.900;2023-08-12T02:01:55;98875.69;;;23.97;46.17
21433;BME280;18592;49.708;10.900;2023-08-12T02:03:56;98874.38;;;23.95;45.90
21433;BME280;18592;49.708;10.900;2023-08-12T02:05:58;98874.38;;;23.95;45.64
21433;BME280;18592;49.708;10.900;2023-08-12T02:08:00;98867.50;;;23.92;45.76
21433;BME280;18592;49.708;10.900;2023-08-12T02:10:01;98868.66;;;23.91;45.80
21433;BME280;18592;49.708;10.900;2023-08-12T02:12:08;98862.59;;;23.89;45.79
21433;BME280;18592;49.708;10.900;2023-08-12T02:14:10;98864.06;;;23.87;45.68
21433;BME280;18592;49.708;10.900;2023-08-12T02:16:12;98854.06;;;23.86;46.16
21433;BME280;18592;49.708;10.900;2023-08-12T02:18:14;98858.03;;;23.85;45.99
21433;BME280;18592;49.708;10.900;2023-08-12T02:20:16;98858.34;;;23.83;46.08
21433;BME280;18592;49.708;10.900;2023-08-12T02:22:19;98858.69;;;23.82;46.00
21433;BME280;18592;49.708;10.900;2023-08-12T02:24:23;98851.47;;;23.81;46.00
21433;BME280;18592;49.708;10.900;2023-08-12T02:26:25;98849.38;;;23.78;45.88
21433;BME280;18592;49.708;10.900;2023-08-12T02:28:29;98852.16;;;23.78;46.14
21433;BME280;18592;49.708;10.900;2023-08-12T02:30:34;98841.31;;;23.76;46.20
21433;BME280;18592;49.708;10.900;2023-08-12T02:36:35;98848.53;;;23.69;46.20
21433;BME280;18592;49.708;10.900;2023-08-12T02:38:56;98850.84;;;23.67;46.14
21433;BME280;18592;49.708;10.900;2023-08-12T02:40:58;98847.25;;;23.66;46.18
21433;BME280;18592;49.708;10.900;2023-08-12T02:42:59;98845.28;;;23.67;46.11
21433;BME280;18592;49.708;10.900;2023-08-12T02:45:00;98844.78;;;23.65;46.21
21433;BME280;18592;49.708;10.900;2023-08-12T02:47:30;98844.44;;;23.66;46.03
21433;BME280;18592;49.708;10.900;2023-08-12T02:49:32;98840.06;;;23.65;46.55
21433;BME280;18592;49.708;10.900;2023-08-12T02:51:45;98837.56;;;23.64;46.44
21433;BME280;18592;49.708;10.900;2023-08-12T02:53:46;98832.34;;;23.62;46.12
21433;BME280;18592;49.708;10.900;2023-08-12T02:55:48;98835.44;;;23.61;46.37
21433;BME280;18592;49.708;10.900;2023-08-12T02:57:49;98846.59;;;23.61;46.41
21433;BME280;18592;49.708;10.900;2023-08-12T02:59:51;98837.44;;;23.60;46.53
21433;BME280;18592;49.708;10.900;2023-08-12T03:02:03;98837.75;;;23.59;46.36
21433;BME280;18592;49.708;10.900;2023-08-12T03:04:17;98827.78;;;23.58;46.35
21433;BME280;18592;49.708;10.900;2023-08-12T03:06:29;98823.69;;;23.55;46.53
21433;BME280;18592;49.708;10.900;2023-08-12T03:08:38;98824.00;;;23.54;46.50
21433;BME280;18592;49.708;10.900;2023-08-12T03:10:41;98821.56;;;23.52;46.59
21433;BME280;18592;49.708;10.900;2023-08-12T03:12:57;98821.88;;;23.51;46.61
21433;BME280;18592;49.708;10.900;2023-08-12T03:15:12;98821.88;;;23.51;46.49
21433;BME280;18592;49.708;10.900;2023-08-12T03:17:23;98826.97;;;23.49;46.82
21433;BME280;18592;49.708;10.900;2023-08-12T03:19:25;98826.97;;;23.49;46.85
21433;BME280;18592;49.708;10.900;2023-08-12T03:21:27;98825.66;;;23.46;46.70
21433;BME280;18592;49.708;10.900;2023-08-12T03:23:30;98827.59;;;23.46;46.71
21433;BME280;18592;49.708;10.900;2023-08-12T03:25:33;98831.56;;;23.45;46.72
21433;BME280;18592;49.708;10.900;2023-08-12T03:27:57;98837.78;;;23.42;46.88
21433;BME280;18592;49.708;10.900;2023-08-12T03:30:00;98836.13;;;23.41;47.09
21433;BME280;18592;49.708;10.900;2023-08-12T03:42:54;98838.41;;;23.21;47.12
21433;BME280;18592;49.708;10.900;2023-08-12T03:44:57;98836.44;;;23.22;47.26
21433;BME280;18592;49.708;10.900;2023-08-12T03:46:58;98842.81;;;23.22;46.97
21433;BME280;18592;49.708;10.900;2023-08-12T03:49:00;98836.44;;;23.22;47.25
21433;BME280;18592;49.708;10.900;2023-08-12T03:51:02;98835.63;;;23.21;47.38
21433;BME280;18592;49.708;10.900;2023-08-12T03:53:02;98838.41;;;23.21;47.02
21433;BME280;18592;49.708;10.900;2023-08-12T03:55:03;98832.00;;;23.21;47.16
21433;BME280;18592;49.708;10.900;2023-08-12T03:57:06;98833.47;;;23.18;47.19
21433;BME280;18592;49.708;10.900;2023-08-12T03:59:07;98836.25;;;23.18;47.31
21433;BME280;18592;49.708;10.900;2023-08-12T04:01:07;98839.88;;;23.19;47.32
21433;BME280;18592;49.708;10.900;2023-08-12T04:03:14;98837.41;;;23.17;47.36
21433;BME280;18592;49.708;10.900;2023-08-12T04:05:14;98830.22;;;23.16;47.40
21433;BME280;18592;49.708;10.900;2023-08-12T04:07:16;98832.16;;;23.16;47.44
21433;BME280;18592;49.708;10.900;2023-08-12T04:09:18;98826.94;;;23.14;47.45
21433;BME280;18592;49.708;10.900;2023-08-12T04:11:19;98827.75;;;23.15;47.52
21433;BME280;18592;49.708;10.900;2023-08-12T04:13:20;98829.22;;;23.12;47.26
21433;BME280;18592;49.708;10.900;2023-08-12T04:15:20;98824.81;;;23.11;47.60
21433;BME280;18592;49.708;10.900;2023-08-12T04:17:21;98835.13;;;23.11;47.44
21433;BME280;18592;49.708;10.900;2023-08-12T04:19:21;98828.72;;;23.10;47.52
21433;BME280;18592;49.708;10.900;2023-08-12T04:21:21;98829.06;;;23.09;47.40
21433;BME280;18592;49.708;10.900;2023-08-12T04:23:22;98839.69;;;23.07;47.45
21433;BME280;18592;49.708;10.900;2023-08-12T04:25:38;98831.66;;;23.05;47.31
21433;BME280;18592;49.708;10.900;2023-08-12T04:27:40;98830.84;;;23.05;47.40
21433;BME280;18592;49.708;10.900;2023-08-12T04:29:40;98832.81;;;23.04;47.47
21433;BME280;18592;49.708;10.900;2023-08-12T04:31:41;98832.31;;;23.02;47.37
21433;BME280;18592;49.708;10.900;2023-08-12T04:33:42;98829.53;;;23.02;47.37
21433;BME280;18592;49.708;10.900;2023-08-12T04:35:43;98828.75;;;23.02;47.54
21433;BME280;18592;49.708;10.900;2023-08-12T04:37:47;98823.00;;;22.98;47.56
21433;BME280;18592;49.708;10.900;2023-08-12T04:39:47;98823.00;;;22.98;47.67
21433;BME280;18592;49.708;10.900;2023-08-12T04:41:48;98823.34;;;22.97;47.76
21433;BME280;18592;49.708;10.900;2023-08-12T04:43:49;98823.00;;;22.98;47.75
21433;BME280;18592;49.708;10.900;2023-08-12T04:45:50;98823.00;;;22.98;47.58
21433;BME280;18592;49.708;10.900;2023-08-12T04:47:59;98818.91;;;22.96;47.83
21433;BME280;18592;49.708;10.900;2023-08-12T04:50:02;98823.34;;;22.97;48.00
21433;BME280;18592;49.708;10.900;2023-08-12T04:52:04;98819.72;;;22.96;47.75
21433;BME280;18592;49.708;10.900;2023-08-12T04:54:05;98818.91;;;22.96;47.97
21433;BME280;18592;49.708;10.900;2023-08-12T04:56:06;98822.31;;;22.93;48.08
21433;BME280;18592;49.708;10.900;2023-08-12T04:58:07;98813.34;;;22.96;47.99
21433;BME280;18592;49.708;10.900;2023-08-12T05:00:08;98810.91;;;22.94;48.13
21433;BME280;18592;49.708;10.900;2023-08-12T05:02:09;98812.69;;;22.99;47.94
21433;BME280;18592;49.708;10.900;2023-08-12T05:04:09;98801.22;;;23.00;47.87
21433;BME280;18592;49.708;10.900;2023-08-12T05:06:10;98809.41;;;23.05;47.71
21433;BME280;18592;49.708;10.900;2023-08-12T05:08:10;98813.19;;;23.09;47.48
21433;BME280;18592;49.708;10.900;2023-08-12T05:10:11;98811.88;;;23.15;47.33
21433;BME280;18592;49.708;10.900;2023-08-12T05:12:12;98800.94;;;23.19;47.18
21433;BME280;18592;49.708;10.900;2023-08-12T05:14:12;98804.38;;;23.24;47.16
21433;BME280;18592;49.708;10.900;2023-08-12T05:16:13;98812.84;;;23.28;47.01
21433;BME280;18592;49.708;10.900;2023-08-12T05:18:14;98810.72;;;23.33;46.92
21433;BME280;18592;49.708;10.900;2023-08-12T05:20:14;98802.88;;;23.35;47.22
21433;BME280;18592;49.708;10.900;2023-08-12T05:22:15;98801.25;;;23.43;47.43
21433;BME280;18592;49.708;10.900;2023-08-12T05:24:16;98803.88;;;23.48;47.10
21433;BME280;18592;49.708;10.900;2023-08-12T05:26:16;98800.13;;;23.53;47.25
21433;BME280;18592;49.708;10.900;2023-08-12T05:28:17;98796.00;;;23.59;47.32
21433;BME280;18592;49.708;10.900;2023-08-12T05:30:17;98791.56;;;23.66;46.62
21433;BME280;18592;49.708;10.900;2023-08-12T05:32:18;98786.63;;;23.72;46.76
21433;BME280;18592;49.708;10.900;2023-08-12T05:34:18;98786.28;;;23.82;46.81
21433;BME280;18592;49.708;10.900;2023-08-12T05:36:18;98780.88;;;23.85;46.74
21433;BME280;18592;49.708;10.900;2023-08-12T05:38:19;98784.63;;;23.89;46.66
21433;BME280;18592;49.708;10.900;2023-08-12T05:40:19;98779.22;;;23.93;46.57
21433;BME280;18592;49.708;10.900;2023-08-12T05:42:19;98783.63;;;23.94;47.14
21433;BME280;18592;49.708;10.900;2023-08-12T05:44:20;98794.09;;;23.97;47.04
21433;BME280;18592;49.708;10.900;2023-08-12T05:46:34;98783.44;;;23.99;47.24
21433;BME280;18592;49.708;10.900;2023-08-12T05:48:34;98782.13;;;24.05;47.32
21433;BME280;18592;49.708;10.900;2023-08-12T05:50:35;98783.44;;;24.08;46.94
21433;BME280;18592;49.708;10.900;2023-08-12T05:52:35;98783.75;;;24.15;46.76
21433;BME280;18592;49.708;10.900;2023-08-12T05:54:36;98784.38;;;24.20;47.09
21433;BME280;18592;49.708;10.900;2023-08-12T05:56:36;98780.56;;;24.25;46.54
21433;BME280;18592;49.708;10.900;2023-08-12T05:58:36;98779.56;;;24.29;46.74
21433;BME280;18592;49.708;10.900;2023-08-12T06:00:37;98777.25;;;24.31;47.09
21433;BME280;18592;49.708;10.900;2023-08-12T06:02:37;98773.31;;;24.32;46.64
21433;BME280;18592;49.708;10.900;2023-08-12T06:04:38;98777.41;;;24.35;46.52
21433;BME280;18592;49.708;10.900;2023-08-12T06:06:39;98780.69;;;24.37;47.00
21433;BME280;18592;49.708;10.900;2023-08-12T06:08:39;98777.06;;;24.36;46.69
21433;BME280;18592;49.708;10.900;2023-08-12T06:10:42;98778.03;;;24.40;46.52
21433;BME280;18592;49.708;10.900;2023-08-12T06:12:42;98780.16;;;24.43;46.87
21433;BME280;18592;49.708;10.900;2023-08-12T06:14:43;98777.84;;;24.45;46.44
21433;BME280;18592;49.708;10.900;2023-08-12T06:16:43;98788.00;;;24.50;46.41
21433;BME280;18592;49.708;10.900;2023-08-12T06:18:44;98785.66;;;24.52;46.52
21433;BME280;18592;49.708;10.900;2023-08-12T06:20:44;98785.81;;;24.55;46.54
21433;BME280;18592;49.708;10.900;2023-08-12T06:22:44;98791.88;;;24.57;46.07
21433;BME280;18592;49.708;10.900;2023-08-12T06:24:45;98801.53;;;24.60;46.14
21433;BME280;18592;49.708;10.900;2023-08-12T06:26:45;98798.44;;;24.61;46.25
21433;BME280;18592;49.708;10.900;2023-08-12T06:28:46;98796.13;;;24.63;46.07
21433;BME280;18592;49.708;10.900;2023-08-12T06:30:47;98793.81;;;24.66;46.31
21433;BME280;18592;49.708;10.900;2023-08-12T06:32:48;98797.06;;;24.68;46.62
21433;BME280;18592;49.708;10.900;2023-08-12T06:34:48;98807.91;;;24.69;46.33
21433;BME280;18592;49.708;10.900;2023-08-12T06:36:49;98804.75;;;24.71;46.56
21433;BME280;18592;49.708;10.900;2023-08-12T06:38:49;98799.34;;;24.74;46.00
21433;BME280;18592;49.708;10.900;2023-08-12T06:40:49;98796.19;;;24.76;46.68
21433;BME280;18592;49.708;10.900;2023-08-12T06:42:50;98799.97;;;24.80;46.65
21433;BME280;18592;49.708;10.900;2023-08-12T06:44:54;98794.53;;;24.83;46.78
21433;BME280;18592;49.708;10.900;2023-08-12T06:46:55;98783.38;;;24.83;46.69
21433;BME280;18592;49.708;10.900;2023-08-12T06:48:55;98795.47;;;24.87;46.74
21433;BME280;18592;49.708;10.900;2023-08-12T06:50:56;98791.19;;;24.90;46.69
21433;BME280;18592;49.708;10.900;2023-08-12T06:53:01;98799.38;;;24.95;46.76
21433;BME280;18592;49.708;10.900;2023-08-12T06:55:03;98796.38;;;25.00;46.50
21433;BME280;18592;49.708;10.900;2023-08-12T06:57:04;98789.28;;;25.02;46.34
21433;BME280;18592;49.708;10.900;2023-08-12T06:59:04;98793.06;;;25.06;46.25
21433;BME280;18592;49.708;10.900;2023-08-12T07:01:05;98788.41;;;25.10;46.13
21433;BME280;18592;49.708;10.900;2023-08-12T07:03:05;98789.72;;;25.13;46.09
21433;BME280;18592;49.708;10.900;2023-08-12T07:05:06;98801.34;;;25.15;46.16
21433;BME280;18592;49.708;10.900;2023-08-12T07:07:06;98786.25;;;25.16;46.65
21433;BME280;18592;49.708;10.900;2023-08-12T07:09:06;98782.31;;;25.17;46.37
21433;BME280;18592;49.708;10.900;2023-08-12T07:11:07;98786.03;;;25.21;46.10
21433;BME280;18592;49.708;10.900;2023-08-12T07:13:07;98782.56;;;25.24;46.05
21433;BME280;18592;49.708;10.900;2023-08-12T07:15:08;98794.66;;;25.28;46.11
21433;BME280;18592;49.708;10.900;2023-08-12T07:17:10;98782.69;;;25.27;46.36
21433;BME280;18592;49.708;10.900;2023-08-12T07:19:11;98787.94;;;25.29;46.35
21433;BME280;18592;49.708;10.900;2023-08-12T07:21:11;98791.56;;;25.30;46.13
21433;BME280;18592;49.708;10.900;2023-08-12T07:23:13;98789.22;;;25.32;46.14
21433;BME280;18592;49.708;10.900;2023-08-12T07:25:14;98794.13;;;25.35;46.20
21433;BME280;18592;49.708;10.900;2023-08-12T07:27:15;98781.94;;;25.39;46.26
21433;BME280;18592;49.708;10.900;2023-08-12T07:29:15;98795.22;;;25.42;46.40
21433;BME280;18592;49.708;10.900;2023-08-12T07:31:31;98797.66;;;25.44;46.03
21433;BME280;18592;49.708;10.900;2023-08-12T07:33:31;98799.44;;;25.48;46.56
21433;BME280;18592;49.708;10.900;2023-08-12T07:35:31;98800.88;;;25.54;46.21
21433;BME280;18592;49.708;10.900;2023-08-12T07:37:32;98790.16;;;25.56;46.57
21433;BME280;18592;49.708;10.900;2023-08-12T07:39:32;98796.69;;;25.60;46.51
21433;BME280;18592;49.708;10.900;2023-08-12T07:41:33;98805.66;;;25.66;46.75
21433;BME280;18592;49.708;10.900;2023-08-12T07:43:33;98796.97;;;25.67;46.76
21433;BME280;18592;49.708;10.900;2023-08-12T07:45:34;98807.91;;;25.72;46.76
21433;BME280;18592;49.708;10.900;2023-08-12T07:47:34;98808.50;;;25.78;46.65
21433;BME280;18592;49.708;10.900;2023-08-12T07:49:35;98807.50;;;25.82;46.18
21433;BME280;18592;49.708;10.900;2023-08-12T07:51:35;98821.69;;;25.90;46.40
21433;BME280;18592;49.708;10.900;2023-08-12T07:53:47;98821.84;;;25.93;46.11
21433;BME280;18592;49.708;10.900;2023-08-12T07:55:48;98825.19;;;25.99;46.22
21433;BME280;18592;49.708;10.900;2023-08-12T07:57:48;98816.13;;;26.02;46.72
21433;BME280;18592;49.708;10.900;2023-08-12T07:59:48;98814.28;;;26.06;46.45
21433;BME280;18592;49.708;10.900;2023-08-12T08:01:49;98812.78;;;26.08;45.90
21433;BME280;18592;49.708;10.900;2023-08-12T08:03:49;98814.06;;;26.11;46.03
21433;BME280;18592;49.708;10.900;2023-08-12T08:05:49;98808.47;;;26.11;46.40
21433;BME280;18592;49.708;10.900;2023-08-12T08:07:51;98805.81;;;26.14;46.35
21433;BME280;18592;49.708;10.900;2023-08-12T08:09:51;98808.75;;;26.18;46.40
21433;BME280;18592;49.708;10.900;2023-08-12T08:11:52;98804.09;;;26.22;46.35
21433;BME280;18592;49.708;10.900;2023-08-12T08:13:52;98802.25;;;26.26;46.18
21433;BME280;18592;49.708;10.900;2023-08-12T08:15:53;98799.22;;;26.31;46.41
21433;BME280;18592;49.708;10.900;2023-08-12T08:17:54;98802.56;;;26.36;46.31
21433;BME280;18592;49.708;10.900;2023-08-12T08:19:54;98800.28;;;26.38;46.55
21433;BME280;18592;49.708;10.900;2023-08-12T08:21:55;98789.66;;;26.44;46.56
21433;BME280;18592;49.708;10.900;2023-08-12T08:23:55;98787.81;;;26.48;46.25
21433;BME280;18592;49.708;10.900;2023-08-12T08:25:56;98783.13;;;26.52;46.53
21433;BME280;18592;49.708;10.900;2023-08-12T08:27:56;98786.50;;;26.58;46.64
21433;BME280;18592;49.708;10.900;2023-08-12T08:29:57;98789.44;;;26.61;46.42
21433;BME280;18592;49.708;10.900;2023-08-12T08:31:57;98783.94;;;26.65;46.24
21433;BME280;18592;49.708;10.900;2023-08-12T08:33:58;98799.66;;;26.69;46.20
21433;BME280;18592;49.708;10.900;2023-08-12T08:35:58;98799.78;;;26.73;45.96
21433;BME280;18592;49.708;10.900;2023-08-12T08:37:58;98790.34;;;26.77;46.21
21433;BME280;18592;49.708;10.900;2023-08-12T08:39:59;98802.94;;;26.83;46.33
21433;BME280;18592;49.708;10.900;2023-08-12T08:41:59;98789.88;;;26.87;46.11
21433;BME280;18592;49.708;10.900;2023-08-12T08:44:02;98787.66;;;26.93;46.65
21433;BME280;18592;49.708;10.900;2023-08-12T08:46:05;98786.59;;;26.97;46.26
21433;BME280;18592;49.708;10.900;2023-08-12T08:48:07;98783.66;;;27.06;46.07
21433;BME280;18592;49.708;10.900;2023-08-12T08:50:09;98790.66;;;27.12;46.17
21433;BME280;18592;49.708;10.900;2023-08-12T08:52:11;98790.41;;;27.17;46.41
21433;BME280;18592;49.708;10.900;2023-08-12T08:54:12;98794.22;;;27.25;46.41
21433;BME280;18592;49.708;10.900;2023-08-12T08:56:13;98790.00;;;27.31;46.51
21433;BME280;18592;49.708;10.900;2023-08-12T08:58:13;98789.28;;;27.34;46.39
21433;BME280;18592;49.708;10.900;2023-08-12T09:00:30;98785.13;;;27.40;46.45
21433;BME280;18592;49.708;10.900;2023-08-12T09:02:31;98787.66;;;27.45;46.35
21433;BME280;18592;49.708;10.900;2023-08-12T09:04:31;98797.53;;;27.54;46.53
21433;BME280;18592;49.708;10.900;2023-08-12T09:06:32;98795.81;;;27.65;46.46
21433;BME280;18592;49.708;10.900;2023-08-12T09:08:37;98794.97;;;27.77;46.14
21433;BME280;18592;49.708;10.900;2023-08-12T09:10:41;98790.56;;;27.92;46.57
21433;BME280;18592;49.708;10.900;2023-08-12T09:12:42;98792.16;;;28.05;46.81
21433;BME280;18592;49.708;10.900;2023-08-12T09:14:43;98777.66;;;28.18;47.38
21433;BME280;18592;49.708;10.900;2023-08-12T09:16:44;98780.91;;;28.36;47.21
21433;BME280;18592;49.708;10.900;2023-08-12T09:18:44;98784.91;;;28.51;47.14
21433;BME280;18592;49.708;10.900;2023-08-12T09:20:45;98774.16;;;28.68;47.52
21433;BME280;18592;49.708;10.900;2023-08-12T09:22:45;98778.97;;;28.87;47.82
21433;BME280;18592;49.708;10.900;2023-08-12T09:24:46;98770.16;;;29.04;47.95
21433;BME280;18592;49.708;10.900;2023-08-12T09:26:51;98771.44;;;29.26;48.40
21433;BME280;18592;49.708;10.900;2023-08-12T09:28:51;98769.97;;;29.51;48.58
21433;BME280;18592;49.708;10.900;2023-08-12T09:30:55;98778.09;;;29.75;48.53
21433;BME280;18592;49.708;10.900;2023-08-12T09:33:01;98773.31;;;29.98;48.25
21433;BME280;18592;49.708;10.900;2023-08-12T09:35:04;98764.13;;;30.24;48.58
21433;BME280;18592;49.708;10.900;2023-08-12T09:37:06;98774.25;;;30.51;48.21
21433;BME280;18592;49.708;10.900;2023-08-12T09:39:07;98777.03;;;30.74;48.06
21433;BME280;18592;49.708;10.900;2023-08-12T09:41:10;98769.75;;;30.96;47.82
21433;BME280;18592;49.708;10.900;2023-08-12T09:43:11;98774.13;;;31.19;47.37
21433;BME280;18592;49.708;10.900;2023-08-12T09:45:23;98772.38;;;31.41;48.00
21433;BME280;18592;49.708;10.900;2023-08-12T09:47:25;98763.41;;;31.65;47.95
21433;BME280;18592;49.708;10.900;2023-08-12T09:49:26;98762.03;;;31.85;46.82
21433;BME280;18592;49.708;10.900;2023-08-12T09:51:27;98764.69;;;32.08;47.23
21433;BME280;18592;49.708;10.900;2023-08-12T09:53:33;98766.91;;;32.29;47.52
21433;BME280;18592;49.708;10.900;2023-08-12T09:55:38;98755.44;;;32.51;46.97
21433;BME280;18592;49.708;10.900;2023-08-12T09:57:42;98756.00;;;32.71;47.00
21433;BME280;18592;49.708;10.900;2023-08-12T10:00:04;98754.53;;;32.91;46.61
21433;BME280;18592;49.708;10.900;2023-08-12T10:02:14;98751.81;;;33.09;46.50
21433;BME280;18592;49.708;10.900;2023-08-12T10:15:00;98736.44;;;34.67;44.18
21433;BME280;18592;49.708;10.900;2023-08-12T10:17:01;98740.88;;;34.71;43.80
21433;BME280;18592;49.708;10.900;2023-08-12T10:19:16;98738.06;;;34.78;43.65
21433;BME280;18592;49.708;10.900;2023-08-12T10:21:16;98742.50;;;34.86;44.16
21433;BME280;18592;49.708;10.900;2023-08-12T10:23:20;98749.75;;;34.94;44.08
21433;BME280;18592;49.708;10.900;2023-08-12T10:25:21;98742.47;;;35.04;44.28
21433;BME280;18592;49.708;10.900;2023-08-12T10:27:22;98736.75;;;35.15;44.06
21433;BME280;18592;49.708;10.900;2023-08-12T10:29:37;98733.50;;;35.27;43.72
21433;BME280;18592;49.708;10.900;2023-08-12T10:31:38;98733.03;;;35.35;44.37
21433;BME280;18592;49.708;10.900;2023-08-12T10:33:40;98739.91;;;35.41;43.53
21433;BME280;18592;49.708;10.900;2023-08-12T10:35:45;98733.00;;;35.42;42.43
21433;BME280;18592;49.708;10.900;2023-08-12T10:37:49;98730.97;;;35.43;41.82
21433;BME280;18592;49.708;10.900;2023-08-12T10:39:54;98735.06;;;35.38;41.64
21433;BME280;18592;49.708;10.900;2023-08-12T10:44:13;98723.28;;;35.40;41.63
21433;BME280;18592;49.708;10.900;2023-08-12T10:46:31;98719.25;;;35.44;42.21
21433;BME280;18592;49.708;10.900;2023-08-12T10:49:09;98726.91;;;35.54;42.14
21433;BME280;18592;49.708;10.900;2023-08-12T10:51:10;98731.72;;;35.64;42.82
21433;BME280;18592;49.708;10.900;2023-08-12T10:53:32;98721.16;;;35.68;42.68
21433;BME280;18592;49.708;10.900;2023-08-12T10:55:36;98721.91;;;35.76;41.82
21433;BME280;18592;49.708;10.900;2023-08-12T10:57:37;98724.31;;;35.78;41.42
21433;BME280;18592;49.708;10.900;2023-08-12T11:01:44;98729.59;;;35.76;40.91
21433;BME280;18592;49.708;10.900;2023-08-12T11:03:48;98723.16;;;35.72;40.58
21433;BME280;18592;49.708;10.900;2023-08-12T11:05:49;98719.13;;;35.69;40.55
21433;BME280;18592;49.708;10.900;2023-08-12T11:08:00;98719.13;;;35.65;40.28
21433;BME280;18592;49.708;10.900;2023-08-12T11:10:26;98720.38;;;35.64;40.78
21433;BME280;18592;49.708;10.900;2023-08-12T11:12:34;98714.25;;;35.69;40.47
21433;BME280;18592;49.708;10.900;2023-08-12T11:14:53;98719.09;;;35.72;40.74
21433;BME280;18592;49.708;10.900;2023-08-12T11:16:54;98706.91;;;35.79;40.70